sensor_id;sensor_type;location;lat;lon;timestamp;temperature;humidity
4922;DHT22;16625;53.624;10.106;2022-08-21T00:00:56;13.80;99.90
4922;DHT22;16625;53.624;10.106;2022-08-21T00:03:23;13.80;99.90
4922;DHT22;16625;53.624;10.106;2022-08-21T00:05:50;13.70;99.90
4922;DHT22;16625;53.624;10.106;2022-08-21T00:08:19;13.70;99.90
4922;DHT22;16625;53.624;10.106;2022-08-21T00:10:47;13.70;99.90
4922;DHT22;16625;53.624;10.106;2022-08-21T00:13:15;13.70;99.90
4922;DHT22;16625;53.624;10.106;2022-08-21T00:15:47;13.70;99.90
4922;DHT22;16625;53.624;10.106;2022-08-21T00:18:14;13.60;99.90
4922;DHT22;16625;53.624;10.106;2022-08-21T00:20:43;13.60;99.90
4922;DHT22;16625;53.624;10.106;2022-08-21T00:23:10;13.60;99.90
4922;DHT22;16625;53.624;10.106;2022-08-21T00:25:38;13.70;99.90
4922;DHT22;16625;53.624;10.106;2022-08-21T00:28:05;13.50;99.90
4922;DHT22;16625;53.624;10.106;2022-08-21T00:30:34;13.50;99.90
4922;DHT22;16625;53.624;10.106;2022-08-21T00:33:04;13.50;99.90
4922;DHT22;16625;53.624;10.106;2022-08-21T00:35:35;13.50;99.90
4922;DHT22;16625;53.624;10.106;2022-08-21T00:38:03;13.50;99.90
4922;DHT22;16625;53.624;10.106;2022-08-21T00:40:32;13.50;99.90
4922;DHT22;16625;53.624;10.106;2022-08-21T00:43:01;13.50;99.90
4922;DHT22;16625;53.624;10.106;2022-08-21T00:45:28;13.40;99.90
4922;DHT22;16625;53.624;10.106;2022-08-21T00:47:56;13.40;99.90
4922;DHT22;16625;53.624;10.106;2022-08-21T00:50:26;13.40;99.90
4922;DHT22;16625;53.624;10.106;2022-08-21T00:52:55;13.40;99.90
4922;DHT22;16625;53.624;10.106;2022-08-21T00:55:23;13.40;99.90
4922;DHT22;16625;53.624;10.106;2022-08-21T00:57:52;13.30;99.90
4922;DHT22;16625;53.624;10.106;2022-08-21T01:00:25;13.30;99.90
4922;DHT22;16625;53.624;10.106;2022-08-21T01:02:53;13.30;99.90
4922;DHT22;16625;53.624;10.106;2022-08-21T01:08:04;13.30;99.90
4922;DHT22;16625;53.624;10.106;2022-08-21T01:10:32;13.20;99.90
4922;DHT22;16625;53.624;10.106;2022-08-21T01:12:59;13.20;99.90
4922;DHT22;16625;53.624;10.106;2022-08-21T01:15:29;13.20;99.90
4922;DHT22;16625;53.624;10.106;2022-08-21T01:17:57;13.20;99.90
4922;DHT22;16625;53.624;10.106;2022-08-21T01:20:24;13.10;99.90
4922;DHT22;16625;53.624;10.106;2022-08-21T01:22:52;13.10;99.90
4922;DHT22;16625;53.624;10.106;2022-08-21T01:25:19;13.10;99.90
4922;DHT22;16625;53.624;10.106;2022-08-21T01:27:46;13.20;99.90
4922;DHT22;16625;53.624;10.106;2022-08-21T01:30:16;13.10;99.90
4922;DHT22;16625;53.624;10.106;2022-08-21T01:32:43;13.10;99.90
4922;DHT22;16625;53.624;10.106;2022-08-21T01:35:11;13.00;99.90
4922;DHT22;16625;53.624;10.106;2022-08-21T01:37:39;13.00;99.90
4922;DHT22;16625;53.624;10.106;2022-08-21T01:40:09;12.90;99.90
4922;DHT22;16625;53.624;10.106;2022-08-21T01:42:37;12.90;99.90
4922;DHT22;16625;53.624;10.106;2022-08-21T01:45:05;12.90;99.90
4922;DHT22;16625;53.624;10.106;2022-08-21T01:47:32;12.90;99.90
4922;DHT22;16625;53.624;10.106;2022-08-21T01:49:59;12.90;99.90
4922;DHT22;16625;53.624;10.106;2022-08-21T01:52:29;12.80;99.90
4922;DHT22;16625;53.624;10.106;2022-08-21T01:54:55;12.80;99.90
4922;DHT22;16625;53.624;10.106;2022-08-21T01:57:24;12.90;99.90
4922;DHT22;16625;53.624;10.106;2022-08-21T01:59:51;12.80;99.90
4922;DHT22;16625;53.624;10.106;2022-08-21T02:02:18;12.70;99.90
4922;DHT22;16625;53.624;10.106;2022-08-21T02:04:45;12.70;99.90
4922;DHT22;16625;53.624;10.106;2022-08-21T02:07:12;12.70;99.90
4922;DHT22;16625;53.624;10.106;2022-08-21T02:09:39;12.70;99.90
4922;DHT22;16625;53.624;10.106;2022-08-21T02:12:07;12.80;99.90
4922;DHT22;16625;53.624;10.106;2022-08-21T02:14:36;12.70;99.90
4922;DHT22;16625;53.624;10.106;2022-08-21T02:17:03;12.80;99.90
4922;DHT22;16625;53.624;10.106;2022-08-21T02:19:30;12.60;99.90
4922;DHT22;16625;53.624;10.106;2022-08-21T02:21:57;12.60;99.90
4922;DHT22;16625;53.624;10.106;2022-08-21T02:24:24;12.60;99.90
4922;DHT22;16625;53.624;10.106;2022-08-21T02:26:51;12.60;99.90
4922;DHT22;16625;53.624;10.106;2022-08-21T02:29:18;12.60;99.90
4922;DHT22;16625;53.624;10.106;2022-08-21T02:31:46;12.60;99.90
4922;DHT22;16625;53.624;10.106;2022-08-21T02:34:13;12.70;99.90
4922;DHT22;16625;53.624;10.106;2022-08-21T02:36:40;12.60;99.90
4922;DHT22;16625;53.624;10.106;2022-08-21T02:39:06;12.50;99.90
4922;DHT22;16625;53.624;10.106;2022-08-21T02:41:33;12.50;99.90
4922;DHT22;16625;53.624;10.106;2022-08-21T02:44:00;12.50;99.90
4922;DHT22;16625;53.624;10.106;2022-08-21T02:46:27;12.60;99.90
4922;DHT22;16625;53.624;10.106;2022-08-21T02:48:55;12.50;99.90
4922;DHT22;16625;53.624;10.106;2022-08-21T02:51:22;12.50;99.90
4922;DHT22;16625;53.624;10.106;2022-08-21T02:53:50;12.50;99.90
4922;DHT22;16625;53.624;10.106;2022-08-21T02:56:19;12.70;99.90
4922;DHT22;16625;53.624;10.106;2022-08-21T02:58:48;12.50;99.90
4922;DHT22;16625;53.624;10.106;2022-08-21T03:01:17;12.60;99.90
4922;DHT22;16625;53.624;10.106;2022-08-21T03:03:46;12.60;99.90
4922;DHT22;16625;53.624;10.106;2022-08-21T03:06:19;12.60;99.90
4922;DHT22;16625;53.624;10.106;2022-08-21T03:08:46;12.70;99.90
4922;DHT22;16625;53.624;10.106;2022-08-21T03:11:14;12.60;99.90
4922;DHT22;16625;53.624;10.106;2022-08-21T03:13:41;12.60;99.90
4922;DHT22;16625;53.624;10.106;2022-08-21T03:16:10;12.50;99.90
4922;DHT22;16625;53.624;10.106;2022-08-21T03:18:38;12.50;99.90
4922;DHT22;16625;53.624;10.106;2022-08-21T03:21:05;12.50;99.90
4922;DHT22;16625;53.624;10.106;2022-08-21T03:23:34;12.40;99.90
4922;DHT22;16625;53.624;10.106;2022-08-21T03:26:01;12.50;99.90
4922;DHT22;16625;53.624;10.106;2022-08-21T03:28:28;12.60;99.90
4922;DHT22;16625;53.624;10.106;2022-08-21T03:30:55;12.50;99.90
4922;DHT22;16625;53.624;10.106;2022-08-21T03:33:22;12.50;99.90
4922;DHT22;16625;53.624;10.106;2022-08-21T03:35:56;12.50;99.90
4922;DHT22;16625;53.624;10.106;2022-08-21T03:38:24;12.60;99.90
4922;DHT22;16625;53.624;10.106;2022-08-21T03:40:52;12.50;99.90
4922;DHT22;16625;53.624;10.106;2022-08-21T03:43:20;12.50;99.90
4922;DHT22;16625;53.624;10.106;2022-08-21T03:45:47;12.50;99.90
4922;DHT22;16625;53.624;10.106;2022-08-21T03:48:14;12.50;99.90
4922;DHT22;16625;53.624;10.106;2022-08-21T03:50:42;12.50;99.90
4922;DHT22;16625;53.624;10.106;2022-08-21T03:53:12;12.40;99.90
4922;DHT22;16625;53.624;10.106;2022-08-21T03:55:40;12.40;99.90
4922;DHT22;16625;53.624;10.106;2022-08-21T03:58:08;12.40;99.90
4922;DHT22;16625;53.624;10.106;2022-08-21T04:00:35;12.40;99.90
4922;DHT22;16625;53.624;10.106;2022-08-21T04:03:03;12.50;99.90
4922;DHT22;16625;53.624;10.106;2022-08-21T04:05:29;12.40;99.90
4922;DHT22;16625;53.624;10.106;2022-08-21T04:07:58;12.40;99.90
4922;DHT22;16625;53.624;10.106;2022-08-21T04:10:26;12.40;99.90
4922;DHT22;16625;53.624;10.106;2022-08-21T04:12:53;12.40;99.90
4922;DHT22;16625;53.624;10.106;2022-08-21T04:15:23;12.40;99.90
4922;DHT22;16625;53.624;10.106;2022-08-21T04:17:51;12.40;99.90
4922;DHT22;16625;53.624;10.106;2022-08-21T04:20:19;12.40;99.90
4922;DHT22;16625;53.624;10.106;2022-08-21T04:22:47;12.30;99.90
4922;DHT22;16625;53.624;10.106;2022-08-21T04:25:15;12.30;99.90
4922;DHT22;16625;53.624;10.106;2022-08-21T04:27:43;12.30;99.90
4922;DHT22;16625;53.624;10.106;2022-08-21T04:30:11;12.30;99.90
4922;DHT22;16625;53.624;10.106;2022-08-21T04:32:41;12.30;99.90
4922;DHT22;16625;53.624;10.106;2022-08-21T04:35:11;12.30;99.90
4922;DHT22;16625;53.624;10.106;2022-08-21T04:37:38;12.30;99.90
4922;DHT22;16625;53.624;10.106;2022-08-21T04:40:06;12.20;99.90
4922;DHT22;16625;53.624;10.106;2022-08-21T04:42:41;12.40;99.90
4922;DHT22;16625;53.624;10.106;2022-08-21T04:45:14;12.60;99.90
4922;DHT22;16625;53.624;10.106;2022-08-21T04:47:43;12.80;99.90
4922;DHT22;16625;53.624;10.106;2022-08-21T04:50:10;12.80;99.90
4922;DHT22;16625;53.624;10.106;2022-08-21T04:52:37;12.90;99.90
4922;DHT22;16625;53.624;10.106;2022-08-21T04:55:04;12.90;99.90
4922;DHT22;16625;53.624;10.106;2022-08-21T04:57:32;13.00;99.90
4922;DHT22;16625;53.624;10.106;2022-08-21T04:59:59;13.10;99.90
4922;DHT22;16625;53.624;10.106;2022-08-21T05:02:27;13.10;99.90
4922;DHT22;16625;53.624;10.106;2022-08-21T05:04:56;13.10;99.90
4922;DHT22;16625;53.624;10.106;2022-08-21T05:07:26;13.30;99.90
4922;DHT22;16625;53.624;10.106;2022-08-21T05:09:54;13.30;99.90
4922;DHT22;16625;53.624;10.106;2022-08-21T05:12:22;13.40;99.90
4922;DHT22;16625;53.624;10.106;2022-08-21T05:14:49;13.50;99.90
4922;DHT22;16625;53.624;10.106;2022-08-21T05:17:16;13.50;99.90
4922;DHT22;16625;53.624;10.106;2022-08-21T05:19:44;13.60;99.90
4922;DHT22;16625;53.624;10.106;2022-08-21T05:22:19;13.60;99.90
4922;DHT22;16625;53.624;10.106;2022-08-21T05:24:46;13.80;99.90
4922;DHT22;16625;53.624;10.106;2022-08-21T05:27:12;13.60;99.90
4922;DHT22;16625;53.624;10.106;2022-08-21T05:29:39;13.70;99.90
4922;DHT22;16625;53.624;10.106;2022-08-21T05:32:08;13.80;99.90
4922;DHT22;16625;53.624;10.106;2022-08-21T05:34:36;14.10;99.90
4922;DHT22;16625;53.624;10.106;2022-08-21T05:37:05;14.30;99.90
4922;DHT22;16625;53.624;10.106;2022-08-21T05:39:34;14.40;99.90
4922;DHT22;16625;53.624;10.106;2022-08-21T05:42:00;14.60;99.90
4922;DHT22;16625;53.624;10.106;2022-08-21T05:44:27;14.60;99.90
4922;DHT22;16625;53.624;10.106;2022-08-21T05:46:54;14.70;99.90
4922;DHT22;16625;53.624;10.106;2022-08-21T05:49:21;14.70;99.90
4922;DHT22;16625;53.624;10.106;2022-08-21T05:51:48;14.80;99.90
4922;DHT22;16625;53.624;10.106;2022-08-21T05:54:15;14.90;99.90
4922;DHT22;16625;53.624;10.106;2022-08-21T05:56:43;14.90;99.90
4922;DHT22;16625;53.624;10.106;2022-08-21T05:59:10;15.00;99.90
4922;DHT22;16625;53.624;10.106;2022-08-21T06:01:39;15.10;99.90
4922;DHT22;16625;53.624;10.106;2022-08-21T06:04:06;15.30;99.90
4922;DHT22;16625;53.624;10.106;2022-08-21T06:06:33;15.40;99.90
4922;DHT22;16625;53.624;10.106;2022-08-21T06:09:00;15.60;99.90
4922;DHT22;16625;53.624;10.106;2022-08-21T06:11:27;15.90;99.90
4922;DHT22;16625;53.624;10.106;2022-08-21T06:13:56;15.80;99.90
4922;DHT22;16625;53.624;10.106;2022-08-21T06:16:24;15.90;99.90
4922;DHT22;16625;53.624;10.106;2022-08-21T06:18:51;15.90;99.90
4922;DHT22;16625;53.624;10.106;2022-08-21T06:21:18;15.90;99.90
4922;DHT22;16625;53.624;10.106;2022-08-21T06:23:45;15.80;99.90
4922;DHT22;16625;53.624;10.106;2022-08-21T06:26:14;15.80;99.90
4922;DHT22;16625;53.624;10.106;2022-08-21T06:28:41;15.80;99.90
4922;DHT22;16625;53.624;10.106;2022-08-21T06:31:15;16.00;99.90
4922;DHT22;16625;53.624;10.106;2022-08-21T06:33:42;16.20;99.90
4922;DHT22;16625;53.624;10.106;2022-08-21T06:36:09;16.40;99.90
4922;DHT22;16625;53.624;10.106;2022-08-21T06:38:36;16.50;99.90
4922;DHT22;16625;53.624;10.106;2022-08-21T06:41:04;16.60;99.90
4922;DHT22;16625;53.624;10.106;2022-08-21T06:43:31;16.60;99.90
4922;DHT22;16625;53.624;10.106;2022-08-21T06:45:58;16.50;99.90
4922;DHT22;16625;53.624;10.106;2022-08-21T06:48:26;16.40;99.90
4922;DHT22;16625;53.624;10.106;2022-08-21T06:50:55;16.40;99.90
4922;DHT22;16625;53.624;10.106;2022-08-21T06:53:22;16.40;99.90
4922;DHT22;16625;53.624;10.106;2022-08-21T06:55:49;16.40;99.90
4922;DHT22;16625;53.624;10.106;2022-08-21T06:58:16;16.40;99.90
4922;DHT22;16625;53.624;10.106;2022-08-21T07:00:48;16.50;99.90
4922;DHT22;16625;53.624;10.106;2022-08-21T07:03:21;16.50;99.90
4922;DHT22;16625;53.624;10.106;2022-08-21T07:05:50;16.50;99.90
4922;DHT22;16625;53.624;10.106;2022-08-21T07:08:17;16.40;99.90
4922;DHT22;16625;53.624;10.106;2022-08-21T07:10:45;16.40;99.90
4922;DHT22;16625;53.624;10.106;2022-08-21T07:13:12;16.50;99.90
4922;DHT22;16625;53.624;10.106;2022-08-21T07:15:39;16.60;99.90
4922;DHT22;16625;53.624;10.106;2022-08-21T07:18:06;16.70;99.90
4922;DHT22;16625;53.624;10.106;2022-08-21T07:20:33;16.90;99.90
4922;DHT22;16625;53.624;10.106;2022-08-21T07:23:06;17.00;99.90
4922;DHT22;16625;53.624;10.106;2022-08-21T07:25:34;17.20;99.90
4922;DHT22;16625;53.624;10.106;2022-08-21T07:28:01;17.40;70.80
4922;DHT22;16625;53.624;10.106;2022-08-21T07:30:28;17.50;1.00
4922;DHT22;16625;53.624;10.106;2022-08-21T07:32:55;17.70;99.90
4922;DHT22;16625;53.624;10.106;2022-08-21T07:35:23;17.80;99.90
4922;DHT22;16625;53.624;10.106;2022-08-21T07:37:50;17.90;52.60
4922;DHT22;16625;53.624;10.106;2022-08-21T07:40:18;18.10;99.90
4922;DHT22;16625;53.624;10.106;2022-08-21T07:42:47;18.20;1.00
4922;DHT22;16625;53.624;10.106;2022-08-21T07:45:17;18.30;99.90
4922;DHT22;16625;53.624;10.106;2022-08-21T07:47:45;18.40;99.90
4922;DHT22;16625;53.624;10.106;2022-08-21T07:50:13;18.60;1.00
4922;DHT22;16625;53.624;10.106;2022-08-21T07:52:40;18.70;99.90
4922;DHT22;16625;53.624;10.106;2022-08-21T07:55:10;18.80;1.00
4922;DHT22;16625;53.624;10.106;2022-08-21T07:57:39;19.00;55.50
4922;DHT22;16625;53.624;10.106;2022-08-21T08:00:08;19.20;99.90
4922;DHT22;16625;53.624;10.106;2022-08-21T08:02:36;19.30;11.80
4922;DHT22;16625;53.624;10.106;2022-08-21T08:05:06;19.40;1.00
4922;DHT22;16625;53.624;10.106;2022-08-21T08:07:33;19.50;99.90
4922;DHT22;16625;53.624;10.106;2022-08-21T08:10:00;19.70;1.00
4922;DHT22;16625;53.624;10.106;2022-08-21T08:12:27;19.80;1.00
4922;DHT22;16625;53.624;10.106;2022-08-21T08:14:57;19.90;99.90
4922;DHT22;16625;53.624;10.106;2022-08-21T08:17:24;20.00;99.90
4922;DHT22;16625;53.624;10.106;2022-08-21T08:19:51;20.00;99.90
4922;DHT22;16625;53.624;10.106;2022-08-21T08:22:21;20.10;40.40
4922;DHT22;16625;53.624;10.106;2022-08-21T08:24:49;20.30;1.00
4922;DHT22;16625;53.624;10.106;2022-08-21T08:27:17;20.20;1.00
4922;DHT22;16625;53.624;10.106;2022-08-21T08:29:45;20.30;1.00
4922;DHT22;16625;53.624;10.106;2022-08-21T08:32:14;20.40;1.00
4922;DHT22;16625;53.624;10.106;2022-08-21T08:34:41;20.40;1.00
4922;DHT22;16625;53.624;10.106;2022-08-21T08:37:09;20.50;1.00
4922;DHT22;16625;53.624;10.106;2022-08-21T08:39:39;20.60;1.00
4922;DHT22;16625;53.624;10.106;2022-08-21T08:42:13;20.60;1.00
4922;DHT22;16625;53.624;10.106;2022-08-21T08:44:40;20.70;1.00
4922;DHT22;16625;53.624;10.106;2022-08-21T08:47:09;20.80;1.00
4922;DHT22;16625;53.624;10.106;2022-08-21T08:49:42;20.80;1.00
4922;DHT22;16625;53.624;10.106;2022-08-21T08:52:20;21.00;1.00
4922;DHT22;16625;53.624;10.106;2022-08-21T08:54:51;21.10;1.00
4922;DHT22;16625;53.624;10.106;2022-08-21T08:57:23;21.20;1.00
4922;DHT22;16625;53.624;10.106;2022-08-21T08:59:54;21.30;1.00
4922;DHT22;16625;53.624;10.106;2022-08-21T09:02:22;21.40;1.00
4922;DHT22;16625;53.624;10.106;2022-08-21T09:04:51;21.40;1.00
4922;DHT22;16625;53.624;10.106;2022-08-21T09:07:25;21.40;1.00
4922;DHT22;16625;53.624;10.106;2022-08-21T09:10:04;21.60;1.00
4922;DHT22;16625;53.624;10.106;2022-08-21T09:12:38;21.70;1.00
4922;DHT22;16625;53.624;10.106;2022-08-21T09:15:14;21.80;1.00
4922;DHT22;16625;53.624;10.106;2022-08-21T09:17:55;21.80;99.90
4922;DHT22;16625;53.624;10.106;2022-08-21T09:20:32;21.90;99.90
4922;DHT22;16625;53.624;10.106;2022-08-21T09:23:13;22.00;99.90
4922;DHT22;16625;53.624;10.106;2022-08-21T09:25:51;22.10;99.90
4922;DHT22;16625;53.624;10.106;2022-08-21T09:28:22;22.20;99.90
4922;DHT22;16625;53.624;10.106;2022-08-21T09:30:50;22.20;99.90
4922;DHT22;16625;53.624;10.106;2022-08-21T09:33:18;22.30;99.90
4922;DHT22;16625;53.624;10.106;2022-08-21T09:35:53;22.30;99.90
4922;DHT22;16625;53.624;10.106;2022-08-21T09:38:29;22.20;99.90
4922;DHT22;16625;53.624;10.106;2022-08-21T09:41:00;22.20;99.90
4922;DHT22;16625;53.624;10.106;2022-08-21T09:43:28;22.50;99.90
4922;DHT22;16625;53.624;10.106;2022-08-21T09:46:07;22.50;99.90
4922;DHT22;16625;53.624;10.106;2022-08-21T09:48:41;22.60;99.90
4922;DHT22;16625;53.624;10.106;2022-08-21T09:51:12;22.70;99.90
4922;DHT22;16625;53.624;10.106;2022-08-21T09:53:43;22.70;99.90
4922;DHT22;16625;53.624;10.106;2022-08-21T09:56:21;22.90;99.90
4922;DHT22;16625;53.624;10.106;2022-08-21T09:59:19;22.90;99.90
4922;DHT22;16625;53.624;10.106;2022-08-21T10:01:49;23.00;99.90
4922;DHT22;16625;53.624;10.106;2022-08-21T10:04:21;23.20;99.90
4922;DHT22;16625;53.624;10.106;2022-08-21T10:06:50;23.30;99.90
4922;DHT22;16625;53.624;10.106;2022-08-21T10:09:18;23.40;99.90
4922;DHT22;16625;53.624;10.106;2022-08-21T10:11:51;23.50;99.90
4922;DHT22;16625;53.624;10.106;2022-08-21T10:14:36;23.70;99.90
4922;DHT22;16625;53.624;10.106;2022-08-21T10:17:13;23.60;99.90
4922;DHT22;16625;53.624;10.106;2022-08-21T10:19:50;23.70;99.90
4922;DHT22;16625;53.624;10.106;2022-08-21T10:22:30;23.70;99.90
4922;DHT22;16625;53.624;10.106;2022-08-21T10:25:07;23.60;99.90
4922;DHT22;16625;53.624;10.106;2022-08-21T10:27:45;23.40;99.90
4922;DHT22;16625;53.624;10.106;2022-08-21T10:30:19;23.30;99.90
4922;DHT22;16625;53.624;10.106;2022-08-21T10:33:06;23.20;99.90
4922;DHT22;16625;53.624;10.106;2022-08-21T10:35:41;23.20;99.90
4922;DHT22;16625;53.624;10.106;2022-08-21T10:38:35;22.90;99.90
4922;DHT22;16625;53.624;10.106;2022-08-21T10:41:10;22.90;99.90
4922;DHT22;16625;53.624;10.106;2022-08-21T10:43:48;22.80;99.90
4922;DHT22;16625;53.624;10.106;2022-08-21T10:46:29;22.60;99.90
4922;DHT22;16625;53.624;10.106;2022-08-21T10:49:06;22.50;99.90
4922;DHT22;16625;53.624;10.106;2022-08-21T10:51:40;22.80;99.90
4922;DHT22;16625;53.624;10.106;2022-08-21T10:54:15;23.00;99.90
4922;DHT22;16625;53.624;10.106;2022-08-21T10:56:47;23.40;99.90
4922;DHT22;16625;53.624;10.106;2022-08-21T10:59:23;23.60;99.90
4922;DHT22;16625;53.624;10.106;2022-08-21T11:01:55;23.80;99.90
4922;DHT22;16625;53.624;10.106;2022-08-21T11:04:28;24.00;99.90
4922;DHT22;16625;53.624;10.106;2022-08-21T11:07:02;24.00;99.90
4922;DHT22;16625;53.624;10.106;2022-08-21T11:09:31;24.10;99.90
4922;DHT22;16625;53.624;10.106;2022-08-21T11:12:02;23.90;99.90
4922;DHT22;16625;53.624;10.106;2022-08-21T11:14:39;23.40;99.90
4922;DHT22;16625;53.624;10.106;2022-08-21T11:17:09;23.50;99.90
4922;DHT22;16625;53.624;10.106;2022-08-21T11:19:44;23.50;99.90
4922;DHT22;16625;53.624;10.106;2022-08-21T11:22:15;23.70;99.90
4922;DHT22;16625;53.624;10.106;2022-08-21T11:24:52;24.10;99.90
4922;DHT22;16625;53.624;10.106;2022-08-21T11:27:24;24.20;99.90
4922;DHT22;16625;53.624;10.106;2022-08-21T11:29:55;24.30;99.90
4922;DHT22;16625;53.624;10.106;2022-08-21T11:32:55;24.30;99.90
4922;DHT22;16625;53.624;10.106;2022-08-21T11:35:30;24.50;99.90
4922;DHT22;16625;53.624;10.106;2022-08-21T11:38:16;24.50;99.90
4922;DHT22;16625;53.624;10.106;2022-08-21T11:40:59;24.40;99.90
4922;DHT22;16625;53.624;10.106;2022-08-21T11:43:38;24.40;99.90
4922;DHT22;16625;53.624;10.106;2022-08-21T11:46:25;24.40;99.90
4922;DHT22;16625;53.624;10.106;2022-08-21T11:49:11;24.30;99.90
4922;DHT22;16625;53.624;10.106;2022-08-21T11:51:48;24.30;99.90
4922;DHT22;16625;53.624;10.106;2022-08-21T11:54:25;24.50;99.90
4922;DHT22;16625;53.624;10.106;2022-08-21T11:57:01;24.50;99.90
4922;DHT22;16625;53.624;10.106;2022-08-21T11:59:35;24.70;99.90
4922;DHT22;16625;53.624;10.106;2022-08-21T12:02:07;24.70;99.90
4922;DHT22;16625;53.624;10.106;2022-08-21T12:04:44;24.60;99.90
4922;DHT22;16625;53.624;10.106;2022-08-21T12:07:13;24.70;99.90
4922;DHT22;16625;53.624;10.106;2022-08-21T12:09:52;24.70;99.90
4922;DHT22;16625;53.624;10.106;2022-08-21T12:12:27;24.70;99.90
4922;DHT22;16625;53.624;10.106;2022-08-21T12:17:56;24.80;99.90
4922;DHT22;16625;53.624;10.106;2022-08-21T12:20:36;25.00;99.90
4922;DHT22;16625;53.624;10.106;2022-08-21T12:23:15;25.20;99.90
4922;DHT22;16625;53.624;10.106;2022-08-21T12:25:45;25.30;99.90
4922;DHT22;16625;53.624;10.106;2022-08-21T12:28:20;25.40;99.90
4922;DHT22;16625;53.624;10.106;2022-08-21T12:30:49;25.60;99.90
4922;DHT22;16625;53.624;10.106;2022-08-21T12:33:23;25.70;99.90
4922;DHT22;16625;53.624;10.106;2022-08-21T12:35:53;25.60;99.90
4922;DHT22;16625;53.624;10.106;2022-08-21T12:38:29;25.30;99.90
4922;DHT22;16625;53.624;10.106;2022-08-21T12:41:03;25.00;99.90
4922;DHT22;16625;53.624;10.106;2022-08-21T12:43:35;24.40;99.90
4922;DHT22;16625;53.624;10.106;2022-08-21T12:46:03;24.20;99.90
4922;DHT22;16625;53.624;10.106;2022-08-21T12:48:33;23.90;99.90
4922;DHT22;16625;53.624;10.106;2022-08-21T12:51:07;23.80;99.90
4922;DHT22;16625;53.624;10.106;2022-08-21T12:53:42;23.70;99.90
4922;DHT22;16625;53.624;10.106;2022-08-21T12:56:16;23.60;99.90
4922;DHT22;16625;53.624;10.106;2022-08-21T12:58:48;23.50;99.90
4922;DHT22;16625;53.624;10.106;2022-08-21T13:01:19;23.60;99.90
4922;DHT22;16625;53.624;10.106;2022-08-21T13:03:48;23.70;99.90
4922;DHT22;16625;53.624;10.106;2022-08-21T13:06:17;23.80;99.90
4922;DHT22;16625;53.624;10.106;2022-08-21T13:08:47;23.90;99.90
4922;DHT22;16625;53.624;10.106;2022-08-21T13:11:16;23.90;99.90
4922;DHT22;16625;53.624;10.106;2022-08-21T13:13:50;23.90;99.90
4922;DHT22;16625;53.624;10.106;2022-08-21T13:16:20;23.70;99.90
4922;DHT22;16625;53.624;10.106;2022-08-21T13:18:55;23.80;99.90
4922;DHT22;16625;53.624;10.106;2022-08-21T13:21:28;23.80;99.90
4922;DHT22;16625;53.624;10.106;2022-08-21T13:24:16;23.80;99.90
4922;DHT22;16625;53.624;10.106;2022-08-21T13:26:43;23.70;99.90
4922;DHT22;16625;53.624;10.106;2022-08-21T13:29:13;23.70;99.90
4922;DHT22;16625;53.624;10.106;2022-08-21T13:31:47;23.70;99.90
4922;DHT22;16625;53.624;10.106;2022-08-21T13:34:15;23.70;99.90
4922;DHT22;16625;53.624;10.106;2022-08-21T13:36:44;23.70;99.90
4922;DHT22;16625;53.624;10.106;2022-08-21T13:39:17;23.70;99.50
4922;DHT22;16625;53.624;10.106;2022-08-21T13:41:47;24.00;99.90
4922;DHT22;16625;53.624;10.106;2022-08-21T13:44:18;24.20;99.90
4922;DHT22;16625;53.624;10.106;2022-08-21T13:46:46;24.30;99.90
4922;DHT22;16625;53.624;10.106;2022-08-21T13:49:15;24.10;99.90
4922;DHT22;16625;53.624;10.106;2022-08-21T13:51:43;24.30;99.90
4922;DHT22;16625;53.624;10.106;2022-08-21T13:54:16;24.40;99.90
4922;DHT22;16625;53.624;10.106;2022-08-21T13:56:47;24.60;99.90
4922;DHT22;16625;53.624;10.106;2022-08-21T13:59:26;24.70;99.90
4922;DHT22;16625;53.624;10.106;2022-08-21T14:01:55;24.70;99.90
4922;DHT22;16625;53.624;10.106;2022-08-21T14:04:29;24.90;99.90
4922;DHT22;16625;53.624;10.106;2022-08-21T14:06:58;25.00;99.90
4922;DHT22;16625;53.624;10.106;2022-08-21T14:09:30;25.20;99.90
4922;DHT22;16625;53.624;10.106;2022-08-21T14:11:58;25.30;99.90
4922;DHT22;16625;53.624;10.106;2022-08-21T14:14:30;25.30;99.90
4922;DHT22;16625;53.624;10.106;2022-08-21T14:17:00;25.60;99.90
4922;DHT22;16625;53.624;10.106;2022-08-21T14:19:34;25.60;99.90
4922;DHT22;16625;53.624;10.106;2022-08-21T14:22:22;25.80;99.90
4922;DHT22;16625;53.624;10.106;2022-08-21T14:24:49;25.90;99.90
4922;DHT22;16625;53.624;10.106;2022-08-21T14:27:17;26.00;99.90
4922;DHT22;16625;53.624;10.106;2022-08-21T14:29:46;26.00;99.90
4922;DHT22;16625;53.624;10.106;2022-08-21T14:32:20;26.00;99.90
4922;DHT22;16625;53.624;10.106;2022-08-21T14:34:47;25.80;99.90
4922;DHT22;16625;53.624;10.106;2022-08-21T14:37:14;25.60;99.90
4922;DHT22;16625;53.624;10.106;2022-08-21T14:39:41;25.40;99.90
4922;DHT22;16625;53.624;10.106;2022-08-21T14:42:08;25.40;99.90
4922;DHT22;16625;53.624;10.106;2022-08-21T14:44:35;25.50;99.90
4922;DHT22;16625;53.624;10.106;2022-08-21T14:47:03;25.60;99.90
4922;DHT22;16625;53.624;10.106;2022-08-21T14:49:30;25.40;99.90
4922;DHT22;16625;53.624;10.106;2022-08-21T14:51:58;25.40;99.90
4922;DHT22;16625;53.624;10.106;2022-08-21T14:54:26;25.20;99.90
4922;DHT22;16625;53.624;10.106;2022-08-21T14:56:53;25.30;99.90
4922;DHT22;16625;53.624;10.106;2022-08-21T14:59:20;25.10;99.90
4922;DHT22;16625;53.624;10.106;2022-08-21T15:01:49;25.20;99.90
4922;DHT22;16625;53.624;10.106;2022-08-21T15:04:17;25.30;99.90
4922;DHT22;16625;53.624;10.106;2022-08-21T15:06:44;25.30;99.90
4922;DHT22;16625;53.624;10.106;2022-08-21T15:09:11;25.40;99.90
4922;DHT22;16625;53.624;10.106;2022-08-21T15:11:38;25.30;99.90
4922;DHT22;16625;53.624;10.106;2022-08-21T15:14:07;25.20;99.90
4922;DHT22;16625;53.624;10.106;2022-08-21T15:16:36;25.10;96.70
4922;DHT22;16625;53.624;10.106;2022-08-21T15:19:03;25.10;96.70
4922;DHT22;16625;53.624;10.106;2022-08-21T15:21:31;24.90;92.70
4922;DHT22;16625;53.624;10.106;2022-08-21T15:23:58;24.70;82.30
4922;DHT22;16625;53.624;10.106;2022-08-21T15:26:25;24.70;81.10
4922;DHT22;16625;53.624;10.106;2022-08-21T15:28:52;24.70;79.00
4922;DHT22;16625;53.624;10.106;2022-08-21T15:31:19;24.80;90.90
4922;DHT22;16625;53.624;10.106;2022-08-21T15:33:46;24.90;85.30
4922;DHT22;16625;53.624;10.106;2022-08-21T15:36:13;25.00;89.20
4922;DHT22;16625;53.624;10.106;2022-08-21T15:38:44;25.10;90.10
4922;DHT22;16625;53.624;10.106;2022-08-21T15:41:12;25.10;88.60
4922;DHT22;16625;53.624;10.106;2022-08-21T15:43:43;25.10;79.80
4922;DHT22;16625;53.624;10.106;2022-08-21T15:46:13;25.10;75.80
4922;DHT22;16625;53.624;10.106;2022-08-21T15:48:41;25.10;94.70
4922;DHT22;16625;53.624;10.106;2022-08-21T15:51:09;25.10;80.30
4922;DHT22;16625;53.624;10.106;2022-08-21T15:53:36;24.90;69.80
4922;DHT22;16625;53.624;10.106;2022-08-21T15:56:20;24.90;84.30